Terminal Aerodrome Forecast
Issued by NWS Binghamton, NY

Home | Current Version | Previous Version | Text Only | Print | Product List | Glossary On
Versions: 1 2 3 4 5 6 7 8 9 10 11 12 13 14 15 16 17 18 19 20 21 22 23
532
FTUS41 KBGM 201727
TAFBGM
TAF
KBGM 201727Z 2018/2118 16008KT P6SM SCT008 OVC015
      TEMPO 2018/2020 OVC008
     FM202000 17008KT 3SM -RA BR OVC008
      TEMPO 2020/2022 SCT008 OVC012
     FM210200 18005KT 4SM BR OVC005
     FM210900 19005KT 3/4SM BR OVC002
     FM211500 19005KT 5SM BR OVC005=

USA.gov is the U.S. government's official web portal to all federal, state and local government web resources and services.